Time;durP1;ratioP1;P1;durP2;ratioP2;P2;SDS_P1;SDS_P2;PMS_P1;PMS_P2;Temp;Humidity;BMP_temperature;BMP_pressure;BME280_temperature;BME280_humidity;BME280_pressure;Samples;Min_cycle;Max_cycle;Signal;HPM_P1;HPM_P2
2023/07/13 00:04:54;;;;;;;;;;;;;;;18.21;59.60156;101355.5;;;;-71
2023/07/13 00:09:54;;;;;;;;;;;;;;;18.15;59.66211;101349.9;;;;-69
2023/07/13 00:14:55;;;;;;;;;;;;;;;18.11;59.69141;101351.2;;;;-68
2023/07/13 00:16:03;;;;;;;0.2;0.1;;;;;;;;;;;;;-69
2023/07/13 00:19:55;;;;;;;;;;;;;;;18.11;59.83789;101348.7;;;;-70
2023/07/13 00:24:55;;;;;;;;;;;;;;;18.06;59.89844;101354.1;;;;-68
2023/07/13 00:29:54;;;;;;;;;;;;;;;18.08;60.5127;101354.4;;;;-69
2023/07/13 00:34:54;;;;;;;;;;;;;;;18.06;60.73633;101354.2;;;;-68
2023/07/13 00:39:54;;;;;;;;;;;;;;;18.11;61.33203;101348.6;;;;-68
2023/07/13 00:45:10;;;;;;;;;;;;;;;18.15;61.9043;101350.1;;;;-68
2023/07/13 00:46:19;;;;;;;0.2;0.1;;;;;;;;;;;;;-69
2023/07/13 00:49:54;;;;;;;;;;;;;;;18.2;63.50781;101351;;;;-70
2023/07/13 00:54:53;;;;;;;;;;;;;;;18.26;63.04004;101351.9;;;;-68
2023/07/13 00:59:55;;;;;;;;;;;;;;;18.28;63.17871;101348.8;;;;-69
2023/07/13 01:04:55;;;;;;;;;;;;;;;18.28;63.87988;101344.7;;;;-69
2023/07/13 01:09:54;;;;;;;;;;;;;;;18.26;63.50293;101343.5;;;;-68
2023/07/13 01:15:00;;;;;;;;;;;;;;;18.24;63.38672;101350.7;;;;-70
2023/07/13 01:16:15;;;;;;;0.6;0.3;;;;;;;;;;;;;-69
2023/07/13 01:19:58;;;;;;;;;;;;;;;18.22;63.24902;101350.1;;;;-68
2023/07/13 01:24:54;;;;;;;;;;;;;;;18.16;62.76563;101350.3;;;;-69
2023/07/13 01:30:01;;;;;;;;;;;;;;;18.11;62.61035;101356.9;;;;-69
2023/07/13 01:34:54;;;;;;;;;;;;;;;18.05;62.71582;101355.2;;;;-69
2023/07/13 01:39:56;;;;;;;;;;;;;;;18;62.5625;101359.5;;;;-70
2023/07/13 01:44:54;;;;;;;;;;;;;;;17.93;62.43945;101352.2;;;;-70
2023/07/13 01:46:13;;;;;;;0.2;0.1;;;;;;;;;;;;;-71
2023/07/13 01:49:54;;;;;;;;;;;;;;;17.86;62.83496;101358.6;;;;-70
2023/07/13 01:54:54;;;;;;;;;;;;;;;17.81;62.80566;101370;;;;-69
2023/07/13 01:59:54;;;;;;;;;;;;;;;17.72;62.5459;101376.5;;;;-70
2023/07/13 02:04:54;;;;;;;;;;;;;;;17.65;62.70313;101380.8;;;;-69
2023/07/13 02:09:53;;;;;;;;;;;;;;;17.58;62.36719;101385.7;;;;-67
2023/07/13 02:14:55;;;;;;;;;;;;;;;17.51;62.3457;101384.6;;;;-69
2023/07/13 02:16:14;;;;;;;0.2;0;;;;;;;;;;;;;-70
2023/07/13 02:19:53;;;;;;;;;;;;;;;17.46;62.55371;101391.2;;;;-70
2023/07/13 02:24:54;;;;;;;;;;;;;;;17.43;62.43652;101393.7;;;;-70
2023/07/13 02:29:53;;;;;;;;;;;;;;;17.36;62.42676;101392.8;;;;-69
2023/07/13 02:34:53;;;;;;;;;;;;;;;17.32;62.5;101395.7;;;;-68
2023/07/13 02:39:54;;;;;;;;;;;;;;;17.31;62.34082;101400.9;;;;-69
2023/07/13 02:44:55;;;;;;;;;;;;;;;17.28;62.57324;101390.1;;;;-69
2023/07/13 02:46:16;;;;;;;0.2;0.1;;;;;;;;;;;;;-71
2023/07/13 02:49:54;;;;;;;;;;;;;;;17.29;62.29199;101388.5;;;;-69
2023/07/13 02:54:54;;;;;;;;;;;;;;;17.25;62.24121;101394.2;;;;-68
2023/07/13 02:59:54;;;;;;;;;;;;;;;17.21;62.34766;101396.5;;;;-69
2023/07/13 03:04:54;;;;;;;;;;;;;;;17.19;62.32324;101400.3;;;;-68
2023/07/13 03:09:57;;;;;;;;;;;;;;;17.14;62.19141;101401.5;;;;-69
2023/07/13 03:14:54;;;;;;;;;;;;;;;17.1;62.70508;101402.1;;;;-68
2023/07/13 03:16:20;;;;;;;0.2;0.1;;;;;;;;;;;;;-69
2023/07/13 03:19:54;;;;;;;;;;;;;;;17.1;62.43457;101402.4;;;;-69
2023/07/13 03:24:56;;;;;;;;;;;;;;;17.11;62.32324;101396;;;;-69
2023/07/13 03:29:53;;;;;;;;;;;;;;;17.06;62.22559;101400.4;;;;-70
2023/07/13 03:34:54;;;;;;;;;;;;;;;17.05;62.1582;101409.3;;;;-69
2023/07/13 03:39:53;;;;;;;;;;;;;;;17.05;62;101405.3;;;;-70
2023/07/13 03:44:54;;;;;;;;;;;;;;;17.05;62.39551;101404.8;;;;-69
2023/07/13 03:46:24;;;;;;;0.2;0;;;;;;;;;;;;;-68
2023/07/13 03:49:53;;;;;;;;;;;;;;;17.08;62.65723;101408.1;;;;-69
2023/07/13 03:54:53;;;;;;;;;;;;;;;17.09;62.72656;101410.8;;;;-70
2023/07/13 03:59:54;;;;;;;;;;;;;;;17.11;62.69531;101417.4;;;;-67
2023/07/13 04:04:54;;;;;;;;;;;;;;;17.12;63.00195;101417.3;;;;-68
2023/07/13 04:09:54;;;;;;;;;;;;;;;17.19;63.11328;101419.7;;;;-67
2023/07/13 04:14:54;;;;;;;;;;;;;;;17.24;63.6748;101421.6;;;;-68
2023/07/13 04:16:25;;;;;;;0.6;0.2;;;;;;;;;;;;;-68
2023/07/13 04:19:53;;;;;;;;;;;;;;;17.28;63.86035;101426.3;;;;-68
2023/07/13 04:24:54;;;;;;;;;;;;;;;17.35;64.00684;101431.7;;;;-69
2023/07/13 04:29:57;;;;;;;;;;;;;;;17.45;64.54102;101438.5;;;;-69
2023/07/13 04:34:55;;;;;;;;;;;;;;;17.51;64.27734;101437.5;;;;-69
2023/07/13 04:39:54;;;;;;;;;;;;;;;17.6;64.87891;101438.7;;;;-68
2023/07/13 04:44:55;;;;;;;;;;;;;;;17.67;64.98047;101443.9;;;;-69
2023/07/13 04:46:28;;;;;;;0.3;0.2;;;;;;;;;;;;;-72
2023/07/13 04:49:54;;;;;;;;;;;;;;;17.74;64.93359;101444.7;;;;-71
2023/07/13 04:54:53;;;;;;;;;;;;;;;17.8;65.18945;101448.7;;;;-70
2023/07/13 04:59:59;;;;;;;;;;;;;;;17.83;65.01465;101446.3;;;;-69
2023/07/13 05:04:55;;;;;;;;;;;;;;;17.88;64.88574;101456.7;;;;-69
2023/07/13 05:09:54;;;;;;;;;;;;;;;17.9;64.45996;101461.9;;;;-69
2023/07/13 05:14:54;;;;;;;;;;;;;;;17.93;64.0791;101463.7;;;;-69
2023/07/13 05:16:28;;;;;;;0.3;0.1;;;;;;;;;;;;;-70
2023/07/13 05:19:55;;;;;;;;;;;;;;;17.98;64.67383;101467.9;;;;-69
2023/07/13 05:24:53;;;;;;;;;;;;;;;18.01;64.23828;101471.3;;;;-67
2023/07/13 05:29:54;;;;;;;;;;;;;;;18.06;64.66211;101473.8;;;;-68
2023/07/13 05:34:53;;;;;;;;;;;;;;;18.09;65.08594;101478.5;;;;-70
2023/07/13 05:39:54;;;;;;;;;;;;;;;18.14;64.60742;101482.1;;;;-69
2023/07/13 05:44:53;;;;;;;;;;;;;;;18.17;64.82617;101487;;;;-70
2023/07/13 05:46:33;;;;;;;0.2;0.1;;;;;;;;;;;;;-69
2023/07/13 05:49:55;;;;;;;;;;;;;;;18.21;64.72949;101494.3;;;;-68
2023/07/13 05:54:54;;;;;;;;;;;;;;;18.23;64.92578;101495.6;;;;-70
2023/07/13 05:59:53;;;;;;;;;;;;;;;18.28;65.35156;101493.9;;;;-68
2023/07/13 06:04:53;;;;;;;;;;;;;;;18.34;65.70996;101496.7;;;;-70
2023/07/13 06:09:53;;;;;;;;;;;;;;;18.41;65.81152;101504.4;;;;-67
2023/07/13 06:14:53;;;;;;;;;;;;;;;18.5;65.80176;101509.2;;;;-68
2023/07/13 06:16:33;;;;;;;0.2;0.1;;;;;;;;;;;;;-69
2023/07/13 06:19:53;;;;;;;;;;;;;;;18.61;65.8291;101509.4;;;;-68
2023/07/13 06:24:53;;;;;;;;;;;;;;;18.75;66.04395;101518.1;;;;-70
2023/07/13 06:29:54;;;;;;;;;;;;;;;18.95;66.1416;101512.7;;;;-69
2023/07/13 06:34:59;;;;;;;;;;;;;;;19.15;65.60449;101520.3;;;;-69
2023/07/13 06:39:53;;;;;;;;;;;;;;;19.34;65.83496;101527.8;;;;-69
2023/07/13 06:44:53;;;;;;;;;;;;;;;19.48;65.22168;101534.9;;;;-70
2023/07/13 06:46:36;;;;;;;0.2;0;;;;;;;;;;;;;-69
2023/07/13 06:49:54;;;;;;;;;;;;;;;19.58;64.49902;101544;;;;-71
2023/07/13 06:54:56;;;;;;;;;;;;;;;19.67;64.70508;101542.1;;;;-69
2023/07/13 06:59:53;;;;;;;;;;;;;;;19.79;64.68652;101549.3;;;;-70
2023/07/13 07:04:54;;;;;;;;;;;;;;;20.24;63.90039;101550.6;;;;-70
2023/07/13 07:09:55;;;;;;;;;;;;;;;20.96;62.44434;101560;;;;-68
2023/07/13 07:14:55;;;;;;;;;;;;;;;21.58;60.01855;101569.2;;;;-70
2023/07/13 07:16:38;;;;;;;1.4;0.7;;;;;;;;;;;;;-71
2023/07/13 07:19:54;;;;;;;;;;;;;;;21.64;59.66211;101570.6;;;;-70
2023/07/13 07:24:56;;;;;;;;;;;;;;;21.47;60.39258;101574.4;;;;-70
2023/07/13 07:29:53;;;;;;;;;;;;;;;21.43;60.23926;101581.9;;;;-70
2023/07/13 07:34:54;;;;;;;;;;;;;;;21.32;60.6582;101588.2;;;;-71
2023/07/13 07:39:54;;;;;;;;;;;;;;;21.25;60.51074;101579.7;;;;-70
2023/07/13 07:44:53;;;;;;;;;;;;;;;21.4;61.05664;101578.1;;;;-72
2023/07/13 07:46:42;;;;;;;0.2;0;;;;;;;;;;;;;-71
2023/07/13 07:49:54;;;;;;;;;;;;;;;22.05;58.75684;101574.3;;;;-71
2023/07/13 07:54:53;;;;;;;;;;;;;;;22.53;56.74805;101572.2;;;;-70
2023/07/13 07:59:55;;;;;;;;;;;;;;;23.08;55.33887;101569.4;;;;-70
2023/07/13 08:04:56;;;;;;;;;;;;;;;23.63;54.1543;101561.6;;;;-70
2023/07/13 08:09:55;;;;;;;;;;;;;;;23.97;53.45996;101562.1;;;;-70
2023/07/13 08:14:57;;;;;;;;;;;;;;;24.27;52.37891;101562.5;;;;-71
2023/07/13 08:16:45;;;;;;;0.2;0;;;;;;;;;;;;;-71
2023/07/13 08:19:54;;;;;;;;;;;;;;;24.37;51.88281;101564;;;;-71
2023/07/13 08:24:55;;;;;;;;;;;;;;;24.06;51.88281;101570.2;;;;-70
2023/07/13 08:29:54;;;;;;;;;;;;;;;23.88;51.98828;101571.9;;;;-71
2023/07/13 08:34:56;;;;;;;;;;;;;;;23.86;52.79102;101583.3;;;;-70
2023/07/13 08:39:53;;;;;;;;;;;;;;;24.16;51.72168;101582.5;;;;-70
2023/07/13 08:44:59;;;;;;;;;;;;;;;24.41;50.44824;101589.4;;;;-72
2023/07/13 08:46:50;;;;;;;0.2;0;;;;;;;;;;;;;-70
2023/07/13 08:49:57;;;;;;;;;;;;;;;24.44;50.27832;101585.5;;;;-71
2023/07/13 08:54:55;;;;;;;;;;;;;;;24.49;49.18945;101586.7;;;;-71
2023/07/13 08:59:54;;;;;;;;;;;;;;;24.76;49.66895;101585.2;;;;-71
2023/07/13 09:04:58;;;;;;;;;;;;;;;25.06;48.375;101596.1;;;;-71
2023/07/13 09:10:00;;;;;;;;;;;;;;;25.2;47.57031;101601.5;;;;-71
2023/07/13 09:14:55;;;;;;;;;;;;;;;24.91;47.14648;101605.2;;;;-71
2023/07/13 09:16:54;;;;;;;0.3;0.1;;;;;;;;;;;;;-72
2023/07/13 09:19:57;;;;;;;;;;;;;;;25.19;46.79492;101606.2;;;;-69
2023/07/13 09:24:57;;;;;;;;;;;;;;;25.44;46.38184;101607.2;;;;-70
2023/07/13 09:29:59;;;;;;;;;;;;;;;25.8;45.96875;101615;;;;-69
2023/07/13 09:35:03;;;;;;;;;;;;;;;26.02;45.25977;101613.7;;;;-71
2023/07/13 09:39:56;;;;;;;;;;;;;;;26.36;44.61035;101617.6;;;;-71
2023/07/13 09:44:59;;;;;;;;;;;;;;;26.36;44.2168;101617.1;;;;-71
2023/07/13 09:47:02;;;;;;;0.2;0;;;;;;;;;;;;;-70
2023/07/13 09:49:58;;;;;;;;;;;;;;;26.61;43.42969;101626.6;;;;-72
2023/07/13 09:54:58;;;;;;;;;;;;;;;26.77;43.16602;101627.6;;;;-70
2023/07/13 09:59:56;;;;;;;;;;;;;;;26.91;42.35547;101626;;;;-69
2023/07/13 10:04:59;;;;;;;;;;;;;;;27.07;42.48633;101628.4;;;;-70
2023/07/13 10:09:57;;;;;;;;;;;;;;;27.33;41.84766;101640.3;;;;-71
2023/07/13 10:14:54;;;;;;;;;;;;;;;27.13;42.15527;101645;;;;-71
2023/07/13 10:17:03;;;;;;;0.3;0.2;;;;;;;;;;;;;-70
2023/07/13 10:19:54;;;;;;;;;;;;;;;27.12;42.30469;101647.9;;;;-70
2023/07/13 10:24:54;;;;;;;;;;;;;;;27.33;41.87109;101651.6;;;;-70
2023/07/13 10:29:59;;;;;;;;;;;;;;;27.61;41.26953;101668.3;;;;-71
2023/07/13 10:34:56;;;;;;;;;;;;;;;27.66;41.38965;101670.5;;;;-71
2023/07/13 10:39:58;;;;;;;;;;;;;;;27.69;41.18359;101675.1;;;;-72
2023/07/13 10:44:53;;;;;;;;;;;;;;;27.68;41.47363;101678.1;;;;-71
2023/07/13 10:47:09;;;;;;;0.2;0;;;;;;;;;;;;;-71
2023/07/13 10:49:57;;;;;;;;;;;;;;;27.98;40.80273;101685.5;;;;-71
2023/07/13 10:54:53;;;;;;;;;;;;;;;28;40.69922;101693.1;;;;-71
2023/07/13 11:00:04;;;;;;;;;;;;;;;27.85;41.2793;101697.3;;;;-70
2023/07/13 11:04:57;;;;;;;;;;;;;;;27.91;39.5498;101696.4;;;;-71
2023/07/13 11:09:55;;;;;;;;;;;;;;;28.1;42.11719;101699.9;;;;-70
2023/07/13 11:15:08;;;;;;;;;;;;;;;28.17;40.19043;101705.8;;;;-70
2023/07/13 11:17:22;;;;;;;0.4;0.1;;;;;;;;;;;;;-70
2023/07/13 11:19:54;;;;;;;;;;;;;;;28.53;41.74902;101702.2;;;;-72
2023/07/13 11:25:16;;;;;;;;;;;;;;;28.54;40.2002;101699.2;;;;-70
2023/07/13 11:29:54;;;;;;;;;;;;;;;28.71;40.47266;101706.8;;;;-69
2023/07/13 11:34:56;;;;;;;;;;;;;;;28.63;40.5;101706.9;;;;-70
2023/07/13 11:39:55;;;;;;;;;;;;;;;28.88;40.74414;101711.6;;;;-70
2023/07/13 11:44:56;;;;;;;;;;;;;;;28.9;40.34766;101710;;;;-70
2023/07/13 11:47:28;;;;;;;0.2;0;;;;;;;;;;;;;-70
2023/07/13 11:49:56;;;;;;;;;;;;;;;28.79;40.96777;101717.7;;;;-70
2023/07/13 11:54:55;;;;;;;;;;;;;;;28.83;40.1084;101721;;;;-70
2023/07/13 11:59:54;;;;;;;;;;;;;;;29.03;41.41016;101722.8;;;;-71
2023/07/13 12:04:54;;;;;;;;;;;;;;;29.19;40.21094;101725.6;;;;-70
2023/07/13 12:09:54;;;;;;;;;;;;;;;29.27;40.42773;101716.6;;;;-71
2023/07/13 12:14:54;;;;;;;;;;;;;;;29.26;40.64941;101713.6;;;;-70
2023/07/13 12:17:24;;;;;;;0.3;0.1;;;;;;;;;;;;;-70
2023/07/13 12:19:54;;;;;;;;;;;;;;;29.52;40.46191;101719.1;;;;-71
2023/07/13 12:24:55;;;;;;;;;;;;;;;29.6;40.48047;101720.8;;;;-71
2023/07/13 12:30:02;;;;;;;;;;;;;;;29.59;40.48047;101731;;;;-69
2023/07/13 12:35:01;;;;;;;;;;;;;;;29.55;40.4541;101735.9;;;;-70
2023/07/13 12:39:55;;;;;;;;;;;;;;;29.61;40.00293;101728.5;;;;-71
2023/07/13 12:44:54;;;;;;;;;;;;;;;29.9;39.88672;101732;;;;-71
2023/07/13 12:47:26;;;;;;;0.1;0;;;;;;;;;;;;;-70
2023/07/13 12:49:57;;;;;;;;;;;;;;;30.02;40.24902;101737.6;;;;-71
2023/07/13 12:55:09;;;;;;;;;;;;;;;29.95;40.1377;101723.5;;;;-70
2023/07/13 12:59:55;;;;;;;;;;;;;;;30;40.75098;101729.1;;;;-72
2023/07/13 13:04:56;;;;;;;;;;;;;;;29.93;40.46289;101736.6;;;;-71
2023/07/13 13:09:56;;;;;;;;;;;;;;;30.13;40.68066;101740.7;;;;-69
2023/07/13 13:14:53;;;;;;;;;;;;;;;30.15;40.8584;101742.3;;;;-71
2023/07/13 13:17:34;;;;;;;0.2;0;;;;;;;;;;;;;-70
2023/07/13 13:19:54;;;;;;;;;;;;;;;29.96;39.98633;101746.4;;;;-70
2023/07/13 13:24:54;;;;;;;;;;;;;;;29.76;41.30273;101741.7;;;;-70
2023/07/13 13:29:54;;;;;;;;;;;;;;;29.83;40.68848;101744.5;;;;-71
2023/07/13 13:34:54;;;;;;;;;;;;;;;29.95;40.02051;101752.2;;;;-71
2023/07/13 13:39:57;;;;;;;;;;;;;;;30.05;39.88965;101758;;;;-71
2023/07/13 13:44:53;;;;;;;;;;;;;;;30.13;38.9834;101751.3;;;;-72
2023/07/13 13:47:40;;;;;;;0.1;0;;;;;;;;;;;;;-70
2023/07/13 13:49:57;;;;;;;;;;;;;;;30.2;39.46875;101749.4;;;;-71
2023/07/13 13:54:55;;;;;;;;;;;;;;;30.04;39.5957;101755.9;;;;-70
2023/07/13 14:04:54;;;;;;;;;;;;;;;29.88;40.06055;101756.3;;;;-69
2023/07/13 14:09:53;;;;;;;;;;;;;;;29.97;39.27344;101757.8;;;;-70
2023/07/13 14:14:54;;;;;;;;;;;;;;;30.04;39.10449;101753.5;;;;-70
2023/07/13 14:17:42;;;;;;;0.2;0;;;;;;;;;;;;;-70
2023/07/13 14:19:57;;;;;;;;;;;;;;;30.03;39.8291;101752.6;;;;-72
2023/07/13 14:24:58;;;;;;;;;;;;;;;30.13;39.9082;101756.6;;;;-71
2023/07/13 14:29:53;;;;;;;;;;;;;;;30.07;39.59863;101754.1;;;;-72
2023/07/13 14:34:54;;;;;;;;;;;;;;;29.99;39.96582;101748.8;;;;-70
2023/07/13 14:39:56;;;;;;;;;;;;;;;30.09;40.04395;101751.2;;;;-72
2023/07/13 14:44:55;;;;;;;;;;;;;;;30.2;39.52734;101761.6;;;;-70
2023/07/13 14:47:47;;;;;;;0.4;0.2;;;;;;;;;;;;;-71
2023/07/13 14:49:55;;;;;;;;;;;;;;;30.12;39.19238;101764.2;;;;-71
2023/07/13 14:54:54;;;;;;;;;;;;;;;30.06;39.43359;101759.8;;;;-70
2023/07/13 14:59:53;;;;;;;;;;;;;;;30.05;39.20996;101762.1;;;;-70
2023/07/13 15:04:55;;;;;;;;;;;;;;;30.07;39.55078;101755.4;;;;-71
2023/07/13 15:09:54;;;;;;;;;;;;;;;30.03;39.11523;101764.4;;;;-70
2023/07/13 15:14:54;;;;;;;;;;;;;;;29.88;39.07813;101756.3;;;;-71
2023/07/13 15:17:59;;;;;;;0.2;0;;;;;;;;;;;;;-71
2023/07/13 15:19:53;;;;;;;;;;;;;;;29.57;39.54297;101767.9;;;;-69
2023/07/13 15:24:54;;;;;;;;;;;;;;;29.53;39.55176;101769.2;;;;-70
2023/07/13 15:29:54;;;;;;;;;;;;;;;29.57;39.87012;101771.1;;;;-70
2023/07/13 15:34:53;;;;;;;;;;;;;;;29.4;39.83203;101777.9;;;;-72
2023/07/13 15:39:53;;;;;;;;;;;;;;;29.08;39.72168;101774.9;;;;-71
2023/07/13 15:44:53;;;;;;;;;;;;;;;29.05;40.16309;101774.8;;;;-70
2023/07/13 15:47:57;;;;;;;0.4;0;;;;;;;;;;;;;-74
2023/07/13 15:49:53;;;;;;;;;;;;;;;29.01;40.31152;101772.8;;;;-70
2023/07/13 15:54:56;;;;;;;;;;;;;;;28.89;40.33594;101764.7;;;;-71
2023/07/13 15:59:54;;;;;;;;;;;;;;;28.74;40.64941;101766.8;;;;-71
2023/07/13 16:04:53;;;;;;;;;;;;;;;28.65;40.6875;101765.9;;;;-69
2023/07/13 16:09:54;;;;;;;;;;;;;;;28.51;41.01367;101769.1;;;;-71
2023/07/13 16:14:53;;;;;;;;;;;;;;;28.3;41.19141;101775.2;;;;-71
2023/07/13 16:18:04;;;;;;;0.1;0;;;;;;;;;;;;;-71
2023/07/13 16:19:56;;;;;;;;;;;;;;;28.14;41.35352;101771.2;;;;-69
2023/07/13 16:24:56;;;;;;;;;;;;;;;28.12;41.3623;101773.9;;;;-71
2023/07/13 16:29:53;;;;;;;;;;;;;;;27.95;41.42773;101775.2;;;;-70
2023/07/13 16:34:54;;;;;;;;;;;;;;;27.78;41.80762;101777.3;;;;-71
2023/07/13 16:39:58;;;;;;;;;;;;;;;27.7;41.88281;101782.9;;;;-70
2023/07/13 16:44:53;;;;;;;;;;;;;;;27.53;42.0752;101785.5;;;;-68
2023/07/13 16:48:14;;;;;;;0.1;0;;;;;;;;;;;;;-70
2023/07/13 16:49:57;;;;;;;;;;;;;;;27.3;42.19434;101788;;;;-68
2023/07/13 16:54:54;;;;;;;;;;;;;;;27.03;42.72656;101786;;;;-69
2023/07/13 16:59:53;;;;;;;;;;;;;;;26.82;42.69531;101787.6;;;;-69
2023/07/13 17:04:53;;;;;;;;;;;;;;;26.6;43.0459;101787.6;;;;-69
2023/07/13 17:09:54;;;;;;;;;;;;;;;26.4;43.50195;101783.3;;;;-71
2023/07/13 17:14:54;;;;;;;;;;;;;;;26.27;43.55859;101782.5;;;;-72
2023/07/13 17:18:14;;;;;;;0.2;0;;;;;;;;;;;;;-69
2023/07/13 17:19:54;;;;;;;;;;;;;;;26.17;43.39844;101781.2;;;;-69
2023/07/13 17:24:56;;;;;;;;;;;;;;;26.13;42.94336;101780.4;;;;-68
2023/07/13 17:29:54;;;;;;;;;;;;;;;26.05;43.09766;101782;;;;-67
2023/07/13 17:34:55;;;;;;;;;;;;;;;25.92;43.45508;101779.8;;;;-71
2023/07/13 17:39:53;;;;;;;;;;;;;;;25.77;43.71777;101777.5;;;;-68
2023/07/13 17:44:53;;;;;;;;;;;;;;;25.59;43.97949;101778.4;;;;-69
2023/07/13 17:48:19;;;;;;;0.2;0;;;;;;;;;;;;;-71
2023/07/13 17:49:53;;;;;;;;;;;;;;;25.41;43.91504;101781.8;;;;-69
2023/07/13 17:54:57;;;;;;;;;;;;;;;25.21;44.72852;101779.8;;;;-70
2023/07/13 17:59:54;;;;;;;;;;;;;;;25.02;44.375;101787.7;;;;-70
2023/07/13 18:05:08;;;;;;;;;;;;;;;24.84;44.92188;101781.2;;;;-68
2023/07/13 18:09:53;;;;;;;;;;;;;;;24.66;44.59277;101777.6;;;;-71
2023/07/13 18:14:53;;;;;;;;;;;;;;;24.53;44.56836;101773.1;;;;-68
2023/07/13 18:18:22;;;;;;;0.2;0;;;;;;;;;;;;;-69
2023/07/13 18:19:53;;;;;;;;;;;;;;;24.42;44.45313;101777;;;;-71
2023/07/13 18:24:53;;;;;;;;;;;;;;;24.29;44.33691;101773.1;;;;-70
2023/07/13 18:29:55;;;;;;;;;;;;;;;24.18;44.33789;101781;;;;-73
2023/07/13 18:34:54;;;;;;;;;;;;;;;24.04;44.3584;101778.6;;;;-72
2023/07/13 18:39:54;;;;;;;;;;;;;;;23.88;44.59668;101773.8;;;;-72
2023/07/13 18:44:56;;;;;;;;;;;;;;;23.77;44.59668;101774.3;;;;-71
2023/07/13 18:48:29;;;;;;;0.2;0.1;;;;;;;;;;;;;-72
2023/07/13 18:49:58;;;;;;;;;;;;;;;23.66;44.75879;101773.1;;;;-72
2023/07/13 18:54:54;;;;;;;;;;;;;;;23.55;44.75879;101772.8;;;;-69
2023/07/13 18:59:53;;;;;;;;;;;;;;;23.41;45.24121;101777.2;;;;-68
2023/07/13 19:04:53;;;;;;;;;;;;;;;23.25;45.12012;101776.5;;;;-69
2023/07/13 19:09:59;;;;;;;;;;;;;;;23.09;45.50684;101783.1;;;;-70
2023/07/13 19:14:54;;;;;;;;;;;;;;;22.93;46.37598;101789.4;;;;-68
2023/07/13 19:18:30;;;;;;;0.2;0;;;;;;;;;;;;;-68
2023/07/13 19:19:54;;;;;;;;;;;;;;;22.75;46.36914;101790.4;;;;-68
2023/07/13 19:24:54;;;;;;;;;;;;;;;22.59;46.49023;101791.8;;;;-68
2023/07/13 19:29:53;;;;;;;;;;;;;;;22.44;47.16406;101797.6;;;;-69
2023/07/13 19:34:55;;;;;;;;;;;;;;;22.29;48.1123;101800.7;;;;-68
2023/07/13 19:39:54;;;;;;;;;;;;;;;22.19;47.81445;101799.4;;;;-70
2023/07/13 19:44:54;;;;;;;;;;;;;;;22.08;47.97461;101795.6;;;;-69
2023/07/13 19:48:36;;;;;;;1;0.2;;;;;;;;;;;;;-69
2023/07/13 19:49:54;;;;;;;;;;;;;;;21.97;48.07813;101794.6;;;;-69
2023/07/13 19:54:55;;;;;;;;;;;;;;;21.86;48.36328;101797.9;;;;-68
2023/07/13 19:59:57;;;;;;;;;;;;;;;21.74;48.99219;101802.2;;;;-68
2023/07/13 20:04:53;;;;;;;;;;;;;;;21.62;49.01367;101805.5;;;;-68
2023/07/13 20:09:54;;;;;;;;;;;;;;;21.52;49.25391;101806.1;;;;-69
2023/07/13 20:14:58;;;;;;;;;;;;;;;21.41;49.92871;101805;;;;-70
2023/07/13 20:18:38;;;;;;;0.2;0.1;;;;;;;;;;;;;-70
2023/07/13 20:19:54;;;;;;;;;;;;;;;21.3;49.91602;101804.6;;;;-68
2023/07/13 20:24:54;;;;;;;;;;;;;;;21.17;50.21094;101801;;;;-68
2023/07/13 20:29:57;;;;;;;;;;;;;;;21.1;50.39746;101811.4;;;;-69
2023/07/13 20:34:54;;;;;;;;;;;;;;;21;50.76367;101808.2;;;;-69
2023/07/13 20:39:53;;;;;;;;;;;;;;;20.88;50.68066;101810;;;;-68
2023/07/13 20:44:54;;;;;;;;;;;;;;;20.76;51.27246;101813.1;;;;-69
2023/07/13 20:48:47;;;;;;;0.2;0;;;;;;;;;;;;;-69
2023/07/13 20:49:57;;;;;;;;;;;;;;;20.61;51.16309;101809.5;;;;-68
2023/07/13 20:54:53;;;;;;;;;;;;;;;20.5;51.3916;101812.6;;;;-67
2023/07/13 20:59:56;;;;;;;;;;;;;;;20.37;51.64941;101807.9;;;;-69
2023/07/13 21:04:53;;;;;;;;;;;;;;;20.21;51.75781;101810.5;;;;-69
2023/07/13 21:09:56;;;;;;;;;;;;;;;20.11;51.6543;101803.2;;;;-67
2023/07/13 21:14:53;;;;;;;;;;;;;;;19.98;51.79785;101807.9;;;;-68
2023/07/13 21:18:45;;;;;;;0.2;0.1;;;;;;;;;;;;;-67
2023/07/13 21:19:53;;;;;;;;;;;;;;;19.88;51.93457;101803.9;;;;-71
2023/07/13 21:24:53;;;;;;;;;;;;;;;19.8;52.00586;101804.5;;;;-68
2023/07/13 21:29:53;;;;;;;;;;;;;;;19.68;52.03711;101803.7;;;;-68
2023/07/13 21:34:53;;;;;;;;;;;;;;;19.62;52.04297;101806.2;;;;-69
2023/07/13 21:39:56;;;;;;;;;;;;;;;19.51;52.43945;101810.9;;;;-67
2023/07/13 21:44:53;;;;;;;;;;;;;;;19.47;52.17285;101817;;;;-69
2023/07/13 21:48:48;;;;;;;0.2;0.1;;;;;;;;;;;;;-69
2023/07/13 21:49:53;;;;;;;;;;;;;;;19.37;52.37598;101818.2;;;;-69
2023/07/13 21:54:58;;;;;;;;;;;;;;;19.32;52.61035;101815.2;;;;-68
2023/07/13 21:59:53;;;;;;;;;;;;;;;19.2;52.84668;101812.5;;;;-68
2023/07/13 22:04:57;;;;;;;;;;;;;;;19.18;52.87793;101811.9;;;;-69
2023/07/13 22:09:53;;;;;;;;;;;;;;;19.09;53.24316;101811.5;;;;-67
2023/07/13 22:14:53;;;;;;;;;;;;;;;19.05;53.38672;101809.5;;;;-68
2023/07/13 22:18:51;;;;;;;0.2;0.1;;;;;;;;;;;;;-68
2023/07/13 22:19:53;;;;;;;;;;;;;;;18.92;53.48438;101807.8;;;;-68
2023/07/13 22:24:53;;;;;;;;;;;;;;;18.86;54.05664;101809;;;;-68
2023/07/13 22:29:53;;;;;;;;;;;;;;;18.8;53.85547;101801.6;;;;-68
2023/07/13 22:34:53;;;;;;;;;;;;;;;18.72;54.3584;101800.4;;;;-68
2023/07/13 22:39:55;;;;;;;;;;;;;;;18.68;54.68164;101800.1;;;;-68
2023/07/13 22:44:54;;;;;;;;;;;;;;;18.59;54.51172;101800;;;;-68
2023/07/13 22:48:58;;;;;;;0.2;0;;;;;;;;;;;;;-66
2023/07/13 22:49:53;;;;;;;;;;;;;;;18.55;54.33691;101796.9;;;;-69
2023/07/13 22:54:53;;;;;;;;;;;;;;;18.49;54.5459;101803.1;;;;-70
2023/07/13 22:59:53;;;;;;;;;;;;;;;18.42;54.34277;101799.6;;;;-69
2023/07/13 23:04:55;;;;;;;;;;;;;;;18.36;54.65332;101796.2;;;;-68
2023/07/13 23:09:53;;;;;;;;;;;;;;;18.32;54.89844;101794.1;;;;-71
2023/07/13 23:14:54;;;;;;;;;;;;;;;18.24;55.48926;101789.8;;;;-68
2023/07/13 23:18:57;;;;;;;0.2;0.1;;;;;;;;;;;;;-68
2023/07/13 23:19:53;;;;;;;;;;;;;;;18.12;55.65723;101779.6;;;;-68
2023/07/13 23:24:53;;;;;;;;;;;;;;;18.13;56.32715;101782;;;;-70
2023/07/13 23:29:55;;;;;;;;;;;;;;;18.08;55.98047;101778.4;;;;-68
2023/07/13 23:34:53;;;;;;;;;;;;;;;18.06;57.21289;101779;;;;-69
2023/07/13 23:39:55;;;;;;;;;;;;;;;18.03;56.69922;101783.5;;;;-68
2023/07/13 23:44:54;;;;;;;;;;;;;;;17.98;56.53418;101783.8;;;;-68
2023/07/13 23:49:01;;;;;;;0.2;0.1;;;;;;;;;;;;;-67
2023/07/13 23:49:55;;;;;;;;;;;;;;;17.93;57.70703;101785.3;;;;-69
2023/07/13 23:54:53;;;;;;;;;;;;;;;17.92;57.60352;101779.3;;;;-68
2023/07/13 23:59:53;;;;;;;;;;;;;;;17.87;56.70313;101777.3;;;;-68
